Observations for TEES-SIDE, United Kingdom (EGNV)

EGNV 130850Z 15012KT 9999 BKN042 04/M01 Q1019   
EGNV 130820Z 15011KT 9999 SCT042 04/M02 Q1019   
EGNV 130750Z 15011KT 9999 SCT042 04/M01 Q1019   
EGNV 130720Z 14011KT 9999 SCT042 04/M01 Q1019   
EGNV 130650Z 14005KT 9999 SCT042 04/M01 Q1018   
EGNV 130620Z 14010KT 9999 BKN045 04/M01 Q1018   
EGNV 130550Z 14013KT 9999 FEW038 SCT040 04/M01 Q1018
EGNV 122150Z 13008KT 9999 SCT040 02/M02 Q1020   
EGNV 122120Z 13009KT 9999 SCT040 03/M02 Q1020   
EGNV 122050Z 13005KT 9999 FEW040 02/M03 Q1021   
EGNV 122020Z 16008KT 9999 FEW041 03/M02 Q1021   
EGNV 121950Z 14012KT CAVOK 03/M02 Q1021 
EGNV 121920Z 14009KT CAVOK 03/M01 Q1021 
EGNV 121850Z 14009KT CAVOK 03/M01 Q1021 
EGNV 121820Z 14010KT CAVOK 03/M01 Q1021 
EGNV 121750Z 14010KT CAVOK 04/M01 Q1021 
EGNV 121720Z 14008KT CAVOK 04/M01 Q1021 
EGNV 121650Z 14011KT CAVOK 04/M00 Q1021 
EGNV 121620Z 15009KT CAVOK 04/00 Q1021  
EGNV 121550Z 15011KT CAVOK 04/00 Q1021  
EGNV 121520Z 14012KT 9999 FEW030 05/01 Q1021
EGNV 121450Z 15011KT 9999 FEW020 06/01 Q1021
EGNV 121420Z 15011KT 9999 FEW020 SCT047 06/01 Q1021 
EGNV 121350Z 15012KT 9999 FEW025 SCT048 07/02 Q1021 
EGNV 121320Z 15010KT 9999 FEW025 BKN048 07/02 Q1022 
EGNV 121250Z 15011KT 9999 FEW025 BKN046 07/02 Q1022 
EGNV 121220Z 17009KT 9999 FEW032 BKN047 06/02 Q1022 
EGNV 121150Z 16008KT 9999 FEW033 06/02 Q1022
EGNV 121120Z 16004KT 9999 SCT033 06/02 Q1022
EGNV 121050Z 14004KT 9999 SCT030 BKN045 05/03 Q1022 
EGNV 121020Z 00000KT 9000 FEW023 BKN030 04/02 Q1022 
EGNV 120950Z 00000KT 9000 FEW023 BKN030 05/03 Q1022 
EGNV 120920Z 00000KT 9000 FEW023 BKN042 04/03 Q1022 
EGNV 120850Z 15002KT 8000 SCT023 BKN042 05/03 Q1022 
EGNV 120820Z 16003KT 9999 SCT018 BKN028 05/03 Q1022